createdAt,value
2022-10-13T00:00:25.213Z,32.53
2022-10-13T00:00:55.320Z,32.51
2022-10-13T00:01:25.415Z,32.56
2022-10-13T00:01:55.448Z,32.59
2022-10-13T00:02:25.476Z,32.53
2022-10-13T00:02:55.508Z,32.53
2022-10-13T00:03:25.534Z,32.53
2022-10-13T00:03:55.566Z,32.54
2022-10-13T00:04:25.592Z,32.57
2022-10-13T00:04:55.621Z,32.51
2022-10-13T00:05:25.657Z,32.56
2022-10-13T00:05:55.707Z,32.54
2022-10-13T00:06:25.727Z,32.59
2022-10-13T00:06:55.749Z,32.57
2022-10-13T00:07:25.783Z,32.52
2022-10-13T00:07:55.813Z,32.52
2022-10-13T00:08:25.835Z,32.57
2022-10-13T00:08:55.868Z,32.55
2022-10-13T00:09:25.898Z,32.49
2022-10-13T00:09:55.934Z,32.56
2022-10-13T00:10:25.966Z,32.56
2022-10-13T00:10:56.017Z,32.56
2022-10-13T00:11:26.024Z,32.56
2022-10-13T00:11:56.051Z,32.56
2022-10-13T00:12:26.085Z,32.52
2022-10-13T00:12:56.110Z,32.59
2022-10-13T00:13:26.140Z,32.55
2022-10-13T00:13:56.175Z,32.56
2022-10-13T00:14:26.206Z,32.56
2022-10-13T00:14:56.227Z,32.54
2022-10-13T00:15:26.266Z,32.56
2022-10-13T00:15:56.294Z,32.53
2022-10-13T00:16:26.322Z,32.54
2022-10-13T00:16:56.349Z,32.59
2022-10-13T00:17:26.384Z,32.48
2022-10-13T00:17:56.413Z,32.54
2022-10-13T00:18:26.443Z,32.53
2022-10-13T00:18:56.477Z,32.53
2022-10-13T00:19:26.505Z,32.56
2022-10-13T00:19:56.532Z,32.48
2022-10-13T00:20:26.572Z,32.54
2022-10-13T00:20:56.598Z,32.49
2022-10-13T00:21:26.626Z,32.57
2022-10-13T00:21:56.656Z,32.57
2022-10-13T00:22:26.691Z,32.56
2022-10-13T00:22:56.716Z,32.51
2022-10-13T00:23:26.748Z,32.57
2022-10-13T00:23:56.784Z,32.57
2022-10-13T00:24:26.810Z,32.54
2022-10-13T00:24:56.846Z,32.57
2022-10-13T00:25:26.879Z,32.53
2022-10-13T00:25:56.911Z,32.51
2022-10-13T00:26:26.965Z,32.54
2022-10-13T00:26:56.972Z,32.54
2022-10-13T00:27:27.007Z,32.54
2022-10-13T00:27:57.034Z,32.57
2022-10-13T00:28:27.109Z,32.56
2022-10-13T00:28:57.277Z,32.55
2022-10-13T00:29:27.179Z,32.54
2022-10-13T00:29:57.224Z,32.60
2022-10-13T00:30:27.264Z,32.53
2022-10-13T00:30:57.292Z,32.57
2022-10-13T00:31:27.322Z,32.56
2022-10-13T00:31:57.358Z,32.53
2022-10-13T00:32:27.385Z,32.54
2022-10-13T00:32:57.419Z,32.55
2022-10-13T00:33:27.445Z,32.55
2022-10-13T00:33:57.473Z,32.54
2022-10-13T00:34:27.498Z,32.51
2022-10-13T00:34:57.534Z,32.52
2022-10-13T00:35:27.575Z,32.51
2022-10-13T00:35:57.597Z,32.55
2022-10-13T00:36:27.630Z,32.55
2022-10-13T00:36:57.670Z,32.55
2022-10-13T00:37:27.700Z,32.51
2022-10-13T00:37:57.729Z,32.57
2022-10-13T00:38:27.773Z,32.54
2022-10-13T00:38:57.798Z,32.57
2022-10-13T00:39:27.800Z,32.54
2022-10-13T00:39:57.792Z,32.54
2022-10-13T00:40:27.917Z,32.62
2022-10-13T00:40:57.906Z,32.59
2022-10-13T00:41:27.903Z,32.55
2022-10-13T00:41:58.041Z,32.55
2022-10-13T00:42:28.134Z,32.59
2022-10-13T00:42:58.131Z,32.60
2022-10-13T00:43:28.245Z,32.55
2022-10-13T00:43:58.365Z,32.55
2022-10-13T00:44:28.478Z,32.55
2022-10-13T00:44:58.474Z,32.52
2022-10-13T00:45:28.472Z,32.55
2022-10-13T00:45:58.586Z,32.57
2022-10-13T00:46:28.710Z,32.49
2022-10-13T00:46:58.823Z,32.55
2022-10-13T00:47:28.941Z,32.57
2022-10-13T00:47:59.057Z,32.60
2022-10-13T00:48:29.178Z,32.57
2022-10-13T00:48:59.171Z,32.52
2022-10-13T00:49:29.192Z,32.54
2022-10-13T00:49:59.227Z,32.52
2022-10-13T00:50:29.264Z,32.52
2022-10-13T00:50:59.295Z,32.57
2022-10-13T00:51:29.320Z,32.59
2022-10-13T00:51:59.351Z,32.54
2022-10-13T00:52:29.378Z,32.56
2022-10-13T00:52:59.413Z,32.55
2022-10-13T00:53:29.441Z,32.52
2022-10-13T00:53:59.472Z,32.54
2022-10-13T00:54:29.503Z,32.57
2022-10-13T00:54:59.540Z,32.56
2022-10-13T00:55:29.572Z,32.51
2022-10-13T00:55:59.602Z,32.59
2022-10-13T00:56:29.639Z,32.51
2022-10-13T00:56:59.678Z,32.54
2022-10-13T00:57:29.786Z,32.57
2022-10-13T00:58:04.745Z,32.55
2022-10-13T00:58:29.825Z,32.57
2022-10-13T00:58:59.855Z,32.58
2022-10-13T00:59:29.881Z,32.62
2022-10-13T00:59:59.912Z,32.55
2022-10-13T01:00:30.050Z,32.57
2022-10-13T01:01:00.045Z,32.55
2022-10-13T01:01:30.089Z,32.57
2022-10-13T01:02:00.122Z,32.60
2022-10-13T01:02:30.153Z,32.60
2022-10-13T01:03:00.197Z,32.57
2022-10-13T01:03:30.223Z,32.62
2022-10-13T01:04:00.254Z,32.55
2022-10-13T01:04:30.282Z,32.58
2022-10-13T01:05:00.311Z,32.58
2022-10-13T01:05:30.350Z,32.55
2022-10-13T01:06:00.388Z,32.58
2022-10-13T01:06:30.414Z,32.57
2022-10-13T01:07:00.450Z,32.57
2022-10-13T01:07:30.481Z,32.58
2022-10-13T01:08:00.526Z,32.57
2022-10-13T01:08:30.543Z,32.58
2022-10-13T01:09:00.575Z,32.54
2022-10-13T01:09:30.618Z,32.52
2022-10-13T01:10:00.641Z,32.59
2022-10-13T01:10:30.673Z,32.55
2022-10-13T01:11:00.705Z,32.58
2022-10-13T01:11:30.737Z,32.55
2022-10-13T01:12:00.769Z,32.58
2022-10-13T01:12:30.807Z,32.61
2022-10-13T01:13:00.979Z,32.57
2022-10-13T01:13:30.846Z,32.57
2022-10-13T01:14:00.879Z,32.55
2022-10-13T01:14:30.910Z,32.57
2022-10-13T01:15:00.941Z,32.58
2022-10-13T01:15:30.976Z,32.58
2022-10-13T01:16:01.009Z,32.52
2022-10-13T01:16:31.041Z,32.57
2022-10-13T01:17:01.073Z,32.57
2022-10-13T01:17:31.108Z,32.60
2022-10-13T01:18:01.132Z,32.55
2022-10-13T01:18:31.167Z,32.57
2022-10-13T01:19:01.198Z,32.55
2022-10-13T01:19:31.224Z,32.58
2022-10-13T01:20:01.327Z,32.55
2022-10-13T01:20:31.360Z,32.55
2022-10-13T01:21:01.395Z,32.60
2022-10-13T01:21:31.421Z,32.58
2022-10-13T01:22:01.460Z,32.59
2022-10-13T01:22:31.493Z,32.57
2022-10-13T01:23:01.521Z,32.52
2022-10-13T01:23:31.555Z,32.58
2022-10-13T01:24:01.589Z,32.60
2022-10-13T01:24:31.613Z,32.58
2022-10-13T01:25:01.670Z,32.58
2022-10-13T01:25:31.703Z,32.58
2022-10-13T01:26:01.738Z,32.54
2022-10-13T01:26:31.770Z,32.60
2022-10-13T01:27:01.804Z,32.52
2022-10-13T01:27:31.831Z,32.58
2022-10-13T01:28:01.861Z,32.58
2022-10-13T01:28:31.954Z,32.57
2022-10-13T01:29:01.967Z,32.57
2022-10-13T01:29:31.989Z,32.59
2022-10-13T01:30:02.050Z,32.55
2022-10-13T01:30:32.067Z,32.57
2022-10-13T01:31:02.102Z,32.59
2022-10-13T01:31:32.131Z,32.57
2022-10-13T01:32:02.166Z,32.58
2022-10-13T01:32:32.194Z,32.55
2022-10-13T01:33:02.232Z,32.57
2022-10-13T01:33:32.267Z,32.58
2022-10-13T01:34:02.295Z,32.55
2022-10-13T01:34:32.329Z,32.56
2022-10-13T01:35:02.381Z,32.59
2022-10-13T01:35:32.411Z,32.56
2022-10-13T01:36:02.441Z,32.58
2022-10-13T01:36:32.468Z,32.58
2022-10-13T01:37:02.495Z,32.61
2022-10-13T01:37:32.530Z,32.59
2022-10-13T01:38:02.564Z,32.59
2022-10-13T01:38:32.590Z,32.61
2022-10-13T01:39:02.628Z,32.58
2022-10-13T01:39:32.741Z,32.59
2022-10-13T01:40:02.897Z,32.59
2022-10-13T01:40:32.880Z,32.58
2022-10-13T01:41:02.874Z,32.68
2022-10-13T01:41:32.992Z,32.56
2022-10-13T01:42:03.113Z,32.56
2022-10-13T01:42:33.104Z,32.61
2022-10-13T01:43:03.222Z,32.62
2022-10-13T01:43:33.333Z,32.61
2022-10-13T01:44:03.489Z,32.59
2022-10-13T01:44:33.569Z,32.64
2022-10-13T01:45:03.723Z,32.61
2022-10-13T01:45:33.714Z,32.61
2022-10-13T01:46:03.831Z,32.58
2022-10-13T01:46:33.947Z,32.58
2022-10-13T01:47:04.066Z,32.61
2022-10-13T01:47:34.188Z,32.59
2022-10-13T01:48:04.307Z,32.62
2022-10-13T01:48:34.301Z,32.56
2022-10-13T01:49:04.299Z,32.59
2022-10-13T01:49:34.329Z,32.61
2022-10-13T01:50:04.381Z,32.62
2022-10-13T01:50:34.414Z,32.58
2022-10-13T01:51:04.443Z,32.59
2022-10-13T01:51:34.471Z,32.61
2022-10-13T01:52:04.508Z,32.65
2022-10-13T01:52:34.538Z,32.59
2022-10-13T01:53:04.565Z,32.64
2022-10-13T01:53:34.595Z,32.64
2022-10-13T01:54:04.625Z,32.64
2022-10-13T01:54:34.657Z,32.62
2022-10-13T01:55:04.719Z,32.61
2022-10-13T01:55:34.747Z,32.61
2022-10-13T01:56:04.779Z,32.64
2022-10-13T01:56:34.812Z,32.61
2022-10-13T01:57:04.845Z,32.67
2022-10-13T01:57:34.875Z,32.71
2022-10-13T01:58:04.907Z,32.64
2022-10-13T01:58:34.935Z,32.61
2022-10-13T01:59:04.969Z,32.65
2022-10-13T01:59:35.023Z,32.65
2022-10-13T02:00:05.056Z,32.62
2022-10-13T02:00:35.143Z,32.67
2022-10-13T02:01:05.230Z,32.59
2022-10-13T02:01:35.240Z,32.61
2022-10-13T02:02:05.270Z,32.64
2022-10-13T02:02:35.307Z,32.58
2022-10-13T02:03:05.338Z,32.59
2022-10-13T02:03:35.363Z,32.62
2022-10-13T02:04:05.401Z,32.59
2022-10-13T02:04:35.426Z,32.63
2022-10-13T02:05:05.479Z,32.61
2022-10-13T02:05:35.515Z,32.65
2022-10-13T02:06:05.547Z,32.59
2022-10-13T02:06:35.583Z,32.65
2022-10-13T02:07:05.609Z,32.62
2022-10-13T02:07:35.639Z,32.68
2022-10-13T02:08:05.669Z,32.67
2022-10-13T02:08:35.702Z,32.65
2022-10-13T02:09:05.733Z,32.62
2022-10-13T02:09:35.756Z,32.63
2022-10-13T02:10:05.807Z,32.63
2022-10-13T02:10:35.835Z,32.63
2022-10-13T02:11:05.862Z,32.63
2022-10-13T02:11:35.895Z,32.61
2022-10-13T02:12:05.935Z,32.62
2022-10-13T02:12:35.961Z,32.65
2022-10-13T02:13:05.991Z,32.63
2022-10-13T02:13:36.031Z,32.63
2022-10-13T02:14:06.054Z,32.65
2022-10-13T02:14:36.081Z,32.62
2022-10-13T02:15:06.192Z,32.63
2022-10-13T02:15:36.185Z,32.62
2022-10-13T02:16:06.217Z,32.60
2022-10-13T02:16:36.249Z,32.62
2022-10-13T02:17:06.278Z,32.65
2022-10-13T02:17:36.305Z,32.65
2022-10-13T02:18:06.338Z,32.63
2022-10-13T02:18:36.365Z,32.62
2022-10-13T02:19:06.397Z,32.63
2022-10-13T02:19:36.428Z,32.62
2022-10-13T02:20:06.464Z,32.65
2022-10-13T02:20:36.490Z,32.65
2022-10-13T02:21:06.525Z,32.61
2022-10-13T02:21:36.554Z,32.65
2022-10-13T02:22:06.582Z,32.68
2022-10-13T02:22:36.616Z,32.65
2022-10-13T02:23:06.646Z,32.68
2022-10-13T02:23:36.675Z,32.63
2022-10-13T02:24:06.710Z,32.68
2022-10-13T02:24:36.733Z,32.66
2022-10-13T02:25:06.763Z,32.63
2022-10-13T02:25:36.814Z,32.65
2022-10-13T02:26:06.845Z,32.65
2022-10-13T02:26:36.871Z,32.61
2022-10-13T02:27:06.905Z,32.69
2022-10-13T02:27:36.933Z,32.65
2022-10-13T02:28:06.965Z,32.69
2022-10-13T02:28:37.010Z,32.68
2022-10-13T02:29:07.025Z,32.66
2022-10-13T02:29:37.058Z,32.69
2022-10-13T02:30:07.086Z,32.63
2022-10-13T02:30:37.140Z,32.63
2022-10-13T02:31:07.146Z,32.66
2022-10-13T02:31:37.169Z,32.71
2022-10-13T02:32:07.208Z,32.66
2022-10-13T02:32:37.242Z,32.63
2022-10-13T02:33:07.269Z,32.68
2022-10-13T02:33:37.305Z,32.66
2022-10-13T02:34:07.338Z,32.69
2022-10-13T02:34:37.362Z,32.66
2022-10-13T02:35:07.405Z,32.69
2022-10-13T02:35:37.497Z,32.66
2022-10-13T02:36:07.522Z,32.65
2022-10-13T02:36:37.552Z,32.63
2022-10-13T02:37:07.582Z,32.65
2022-10-13T02:37:37.612Z,32.69
2022-10-13T02:38:07.649Z,32.65
2022-10-13T02:38:37.689Z,32.66
2022-10-13T02:39:07.709Z,32.66
2022-10-13T02:39:37.826Z,32.66
2022-10-13T02:40:07.821Z,32.68
2022-10-13T02:40:37.942Z,32.68
2022-10-13T02:41:08.060Z,32.66
2022-10-13T02:41:38.050Z,32.63
2022-10-13T02:42:08.046Z,32.72
2022-10-13T02:42:38.160Z,32.74
2022-10-13T02:43:08.155Z,32.66
2022-10-13T02:43:38.272Z,32.65
2022-10-13T02:44:08.395Z,32.68
2022-10-13T02:44:38.385Z,32.65
2022-10-13T02:45:08.502Z,32.68
2022-10-13T02:45:38.622Z,32.71
2022-10-13T02:46:08.825Z,32.68
2022-10-13T02:46:38.781Z,32.65
2022-10-13T02:47:08.779Z,32.64
2022-10-13T02:47:38.774Z,32.69
2022-10-13T02:48:08.888Z,32.63
2022-10-13T02:48:38.883Z,32.66
2022-10-13T02:49:08.886Z,32.68
2022-10-13T02:49:38.921Z,32.72
2022-10-13T02:50:08.952Z,32.64
2022-10-13T02:50:38.991Z,32.72
2022-10-13T02:51:09.032Z,32.70
2022-10-13T02:51:40.362Z,32.72
2022-10-13T02:52:09.141Z,32.72
2022-10-13T02:52:39.172Z,32.69
2022-10-13T02:53:09.201Z,32.69
2022-10-13T02:53:39.227Z,32.69
2022-10-13T02:54:09.255Z,32.68
2022-10-13T02:54:39.286Z,32.68
2022-10-13T02:55:09.320Z,32.69
2022-10-13T02:55:39.350Z,32.65
2022-10-13T02:56:09.381Z,32.64
2022-10-13T02:56:39.418Z,32.68
2022-10-13T02:57:09.439Z,32.63
2022-10-13T02:57:39.471Z,32.62
2022-10-13T02:58:09.505Z,32.63
2022-10-13T02:58:39.532Z,32.62
2022-10-13T02:59:09.564Z,32.59
2022-10-13T02:59:39.592Z,32.60
2022-10-13T03:00:09.638Z,32.60
2022-10-13T03:00:39.735Z,32.62
2022-10-13T03:01:09.898Z,32.57
2022-10-13T03:01:39.867Z,32.57
2022-10-13T03:02:09.877Z,32.61
2022-10-13T03:02:39.910Z,32.57
2022-10-13T03:03:09.943Z,32.50
2022-10-13T03:03:39.966Z,32.56
2022-10-13T03:04:09.997Z,32.55
2022-10-13T03:04:40.025Z,32.53
2022-10-13T03:05:10.057Z,32.49
2022-10-13T03:05:40.090Z,32.50
2022-10-13T03:06:10.201Z,32.49
2022-10-13T03:06:40.238Z,32.47
2022-10-13T03:07:10.271Z,32.45
2022-10-13T03:07:40.306Z,32.46
2022-10-13T03:08:10.332Z,32.49
2022-10-13T03:08:40.366Z,32.47
2022-10-13T03:09:10.394Z,32.46
2022-10-13T03:09:40.423Z,32.46
2022-10-13T03:10:10.458Z,32.46
2022-10-13T03:10:40.494Z,32.43
2022-10-13T03:11:10.521Z,32.37
2022-10-13T03:11:40.555Z,32.42
2022-10-13T03:12:10.587Z,32.42
2022-10-13T03:12:40.610Z,32.40
2022-10-13T03:13:10.639Z,32.37
2022-10-13T03:13:40.669Z,32.42
2022-10-13T03:14:10.697Z,32.34
2022-10-13T03:14:40.749Z,32.37
2022-10-13T03:15:10.772Z,32.36
2022-10-13T03:15:40.802Z,32.35
2022-10-13T03:16:10.830Z,32.37
2022-10-13T03:16:40.861Z,32.34
2022-10-13T03:17:13.432Z,32.36
2022-10-13T03:17:41.007Z,32.37
2022-10-13T03:18:11.040Z,32.34
2022-10-13T03:18:41.072Z,32.36
2022-10-13T03:19:11.101Z,32.37
2022-10-13T03:19:41.152Z,32.34
2022-10-13T03:20:11.185Z,32.34
2022-10-13T03:20:41.211Z,32.37
2022-10-13T03:21:11.246Z,32.39
2022-10-13T03:21:41.283Z,32.37
2022-10-13T03:22:11.313Z,32.34
2022-10-13T03:22:43.903Z,32.34
2022-10-13T03:23:11.361Z,32.31
2022-10-13T03:23:41.385Z,32.30
2022-10-13T03:24:11.414Z,32.31
2022-10-13T03:24:41.464Z,32.34
2022-10-13T03:25:11.489Z,32.30
2022-10-13T03:25:41.526Z,32.27
2022-10-13T03:26:11.554Z,32.33
2022-10-13T03:26:41.584Z,32.31
2022-10-13T03:27:11.618Z,32.31
2022-10-13T03:27:41.656Z,32.33
2022-10-13T03:28:11.732Z,32.34
2022-10-13T03:28:41.795Z,32.31
2022-10-13T03:29:11.800Z,32.34
2022-10-13T03:29:41.848Z,32.37
2022-10-13T03:30:11.885Z,32.33
2022-10-13T03:30:41.917Z,32.36
2022-10-13T03:31:11.950Z,32.33
2022-10-13T03:31:41.997Z,32.33
2022-10-13T03:32:12.019Z,32.33
2022-10-13T03:32:42.067Z,32.31
2022-10-13T03:33:12.070Z,32.31
2022-10-13T03:33:42.107Z,32.33
2022-10-13T03:34:12.134Z,32.31
2022-10-13T03:34:42.173Z,32.34
2022-10-13T03:35:12.202Z,32.34
2022-10-13T03:35:42.236Z,32.36
2022-10-13T03:36:12.268Z,32.34
2022-10-13T03:36:42.294Z,32.33
2022-10-13T03:37:12.327Z,32.31
2022-10-13T03:37:42.362Z,32.30
2022-10-13T03:38:12.390Z,32.33
2022-10-13T03:38:42.420Z,32.36
2022-10-13T03:39:12.439Z,32.31
2022-10-13T03:39:42.571Z,32.30
2022-10-13T03:40:12.560Z,32.34
2022-10-13T03:40:42.681Z,32.37
2022-10-13T03:41:12.796Z,32.34
2022-10-13T03:41:42.909Z,32.30
2022-10-13T03:42:12.908Z,32.33
2022-10-13T03:42:43.029Z,32.33
2022-10-13T03:43:13.141Z,32.34
2022-10-13T03:43:43.262Z,32.28
2022-10-13T03:44:13.263Z,32.30
2022-10-13T03:44:43.394Z,32.28
2022-10-13T03:45:13.384Z,32.34
2022-10-13T03:45:43.380Z,32.28
2022-10-13T03:46:13.374Z,32.36
2022-10-13T03:46:43.499Z,32.33
2022-10-13T03:47:13.488Z,32.33
2022-10-13T03:47:43.485Z,32.33
2022-10-13T03:48:13.623Z,32.27
2022-10-13T03:48:43.591Z,32.30
2022-10-13T03:49:13.607Z,32.27
2022-10-13T03:49:43.649Z,32.28
2022-10-13T03:50:13.676Z,32.30
2022-10-13T03:50:43.709Z,32.27
2022-10-13T03:51:13.738Z,32.34
2022-10-13T03:51:43.762Z,32.28
2022-10-13T03:52:13.796Z,32.28
2022-10-13T03:52:43.833Z,32.27
2022-10-13T03:53:13.860Z,32.24
2022-10-13T03:53:43.898Z,32.27
2022-10-13T03:54:13.923Z,32.29
2022-10-13T03:54:43.964Z,32.24
2022-10-13T03:55:13.992Z,32.22
2022-10-13T03:55:44.037Z,32.21
2022-10-13T03:56:14.055Z,32.29
2022-10-13T03:56:44.083Z,32.19
2022-10-13T03:57:14.112Z,32.22
2022-10-13T03:57:44.147Z,32.19
2022-10-13T03:58:14.175Z,32.21
2022-10-13T03:58:44.207Z,32.23
2022-10-13T03:59:14.237Z,32.19
2022-10-13T03:59:44.308Z,32.18
2022-10-13T04:00:14.344Z,32.17
2022-10-13T04:00:44.380Z,32.18
2022-10-13T04:01:14.412Z,32.15
2022-10-13T04:01:44.494Z,32.19
2022-10-13T04:02:14.493Z,32.18
2022-10-13T04:02:44.521Z,32.15
2022-10-13T04:03:14.548Z,32.17
2022-10-13T04:03:44.602Z,32.12
2022-10-13T04:04:14.609Z,32.16
2022-10-13T04:04:44.652Z,32.14
2022-10-13T04:05:14.679Z,32.15
2022-10-13T04:05:44.717Z,32.11
2022-10-13T04:06:14.742Z,32.12
2022-10-13T04:06:44.773Z,32.12
2022-10-13T04:07:14.803Z,32.12
2022-10-13T04:07:44.833Z,32.12
2022-10-13T04:08:14.862Z,32.11
2022-10-13T04:08:44.896Z,32.13
2022-10-13T04:09:14.925Z,32.15
2022-10-13T04:09:44.954Z,32.09
2022-10-13T04:10:14.985Z,32.10
2022-10-13T04:10:45.017Z,32.06
2022-10-13T04:11:15.044Z,32.06
2022-10-13T04:11:45.078Z,32.13
2022-10-13T04:12:19.757Z,32.07
2022-10-13T04:12:45.156Z,32.07
2022-10-13T04:13:15.186Z,32.06
2022-10-13T04:13:45.219Z,32.03
2022-10-13T04:14:15.247Z,32.02
2022-10-13T04:14:45.289Z,32.00
2022-10-13T04:15:15.326Z,32.03
2022-10-13T04:15:45.355Z,31.99
2022-10-13T04:16:15.396Z,32.05
2022-10-13T04:16:45.423Z,32.03
2022-10-13T04:17:15.451Z,32.08
2022-10-13T04:17:45.483Z,32.03
2022-10-13T04:18:15.514Z,32.04
2022-10-13T04:18:45.544Z,31.98
2022-10-13T04:19:15.592Z,31.99
2022-10-13T04:19:45.621Z,32.05
2022-10-13T04:20:15.653Z,32.02
2022-10-13T04:20:45.680Z,31.99
2022-10-13T04:21:15.710Z,31.96
2022-10-13T04:21:45.747Z,31.98
2022-10-13T04:22:15.769Z,31.99
2022-10-13T04:22:45.800Z,32.01
2022-10-13T04:23:15.843Z,31.96
2022-10-13T04:23:45.870Z,31.96
2022-10-13T04:24:15.900Z,31.98
2022-10-13T04:24:45.947Z,31.92
2022-10-13T04:25:15.985Z,31.98
2022-10-13T04:25:46.013Z,32.01
2022-10-13T04:26:16.046Z,31.96
2022-10-13T04:26:46.081Z,31.97
2022-10-13T04:27:16.107Z,31.95
2022-10-13T04:27:46.137Z,31.92
2022-10-13T04:28:16.222Z,31.90
2022-10-13T04:28:46.330Z,31.88
2022-10-13T04:29:16.363Z,31.89
2022-10-13T04:29:46.425Z,31.93
2022-10-13T04:30:16.475Z,31.89
2022-10-13T04:30:49.458Z,31.92
2022-10-13T04:31:16.576Z,31.92
2022-10-13T04:31:46.610Z,31.90
2022-10-13T04:32:16.916Z,31.87
2022-10-13T04:32:46.679Z,31.89
2022-10-13T04:33:16.710Z,31.92
2022-10-13T04:33:46.736Z,31.89
2022-10-13T04:34:16.770Z,31.89
2022-10-13T04:34:46.843Z,31.95
2022-10-13T04:35:16.855Z,31.89
2022-10-13T04:35:46.882Z,31.94
2022-10-13T04:36:16.918Z,31.92
2022-10-13T04:36:46.955Z,31.86
2022-10-13T04:37:16.976Z,31.92
2022-10-13T04:37:47.020Z,31.93
2022-10-13T04:38:17.046Z,31.87
2022-10-13T04:38:47.087Z,31.90
2022-10-13T04:39:17.090Z,31.87
2022-10-13T04:39:47.229Z,31.90
2022-10-13T04:40:17.222Z,31.94
2022-10-13T04:40:47.340Z,31.88
2022-10-13T04:41:17.343Z,31.89
2022-10-13T04:41:47.459Z,31.92
2022-10-13T04:42:17.897Z,31.92
2022-10-13T04:42:47.495Z,31.92
2022-10-13T04:43:17.490Z,31.94
2022-10-13T04:43:47.610Z,31.88
2022-10-13T04:44:17.602Z,31.84
2022-10-13T04:44:47.734Z,31.89
2022-10-13T04:45:17.722Z,31.84
2022-10-13T04:45:47.844Z,31.94
2022-10-13T04:46:17.840Z,31.93
2022-10-13T04:46:47.875Z,31.90
2022-10-13T04:47:17.865Z,31.92
2022-10-13T04:47:47.864Z,31.93
2022-10-13T04:48:17.855Z,31.92
2022-10-13T04:48:47.850Z,31.95
2022-10-13T04:49:17.867Z,31.98
2022-10-13T04:49:47.914Z,31.93
2022-10-13T04:50:17.967Z,31.93
2022-10-13T04:50:47.980Z,31.95
2022-10-13T04:51:18.015Z,31.93
2022-10-13T04:51:48.043Z,32.01
2022-10-13T04:52:18.363Z,31.96
2022-10-13T04:52:48.170Z,31.95
2022-10-13T04:53:19.266Z,31.93
2022-10-13T04:53:48.214Z,31.99
2022-10-13T04:54:18.249Z,31.98
2022-10-13T04:54:48.287Z,31.96
2022-10-13T04:55:18.313Z,32.02
2022-10-13T04:55:48.346Z,31.98
2022-10-13T04:56:18.392Z,31.99
2022-10-13T04:56:48.405Z,32.01
2022-10-13T04:57:18.442Z,31.95
2022-10-13T04:57:48.479Z,31.99
2022-10-13T04:58:18.500Z,31.98
2022-10-13T04:58:48.533Z,32.01
2022-10-13T04:59:18.565Z,31.95
2022-10-13T04:59:48.610Z,31.98
2022-10-13T05:00:18.641Z,31.98
2022-10-13T05:00:48.720Z,32.01
2022-10-13T05:01:21.876Z,31.96
2022-10-13T05:01:48.819Z,32.01
2022-10-13T05:02:19.079Z,32.01
2022-10-13T05:02:48.958Z,32.01
2022-10-13T05:03:18.987Z,31.99
2022-10-13T05:03:49.019Z,32.05
2022-10-13T05:04:19.051Z,32.03
2022-10-13T05:04:49.095Z,32.02
2022-10-13T05:05:19.134Z,32.08
2022-10-13T05:05:49.194Z,32.11
2022-10-13T05:06:19.198Z,32.19
2022-10-13T05:07:15.920Z,32.14
2022-10-13T05:07:19.276Z,32.16
2022-10-13T05:07:49.307Z,32.14
2022-10-13T05:08:19.337Z,32.14
2022-10-13T05:08:49.371Z,32.08
2022-10-13T05:09:19.403Z,32.08
2022-10-13T05:09:49.439Z,32.13
2022-10-13T05:10:19.479Z,32.10
2022-10-13T05:10:49.513Z,32.05
2022-10-13T05:11:19.549Z,32.07
2022-10-13T05:11:49.581Z,32.04
2022-10-13T05:12:19.921Z,32.04
2022-10-13T05:12:49.676Z,32.03
2022-10-13T05:13:19.719Z,32.02
2022-10-13T05:13:49.755Z,32.04
2022-10-13T05:14:19.804Z,32.01
2022-10-13T05:14:49.833Z,32.04
2022-10-13T05:15:19.879Z,32.06
2022-10-13T05:15:49.910Z,32.06
2022-10-13T05:16:19.937Z,32.06
2022-10-13T05:16:49.976Z,32.09
2022-10-13T05:17:20.009Z,32.06
2022-10-13T05:17:50.035Z,32.07
2022-10-13T05:18:20.065Z,32.06
2022-10-13T05:18:50.096Z,32.04
2022-10-13T05:19:20.127Z,32.04
2022-10-13T05:19:50.170Z,32.08
2022-10-13T05:20:20.199Z,32.06
2022-10-13T05:20:50.225Z,32.04
2022-10-13T05:21:20.278Z,32.04
2022-10-13T05:21:50.290Z,32.08
2022-10-13T05:22:20.586Z,32.08
2022-10-13T05:22:50.338Z,32.03
2022-10-13T05:23:20.371Z,32.00
2022-10-13T05:23:50.406Z,32.02
2022-10-13T05:24:20.451Z,32.03
2022-10-13T05:24:50.482Z,32.09
2022-10-13T05:25:20.537Z,32.02
2022-10-13T05:25:50.563Z,32.00
2022-10-13T05:26:20.609Z,31.96
2022-10-13T05:26:50.641Z,31.99
2022-10-13T05:27:20.673Z,31.99
2022-10-13T05:27:50.699Z,31.97
2022-10-13T05:28:20.793Z,31.99
2022-10-13T05:28:50.867Z,31.99
2022-10-13T05:29:20.829Z,31.99
2022-10-13T05:29:50.850Z,32.06
2022-10-13T05:30:20.882Z,32.03
2022-10-13T05:30:50.912Z,31.99
2022-10-13T05:31:20.951Z,31.99
2022-10-13T05:31:50.992Z,31.93
2022-10-13T05:32:21.471Z,31.97
2022-10-13T05:32:53.900Z,32.08
2022-10-13T05:33:21.203Z,32.02
2022-10-13T05:33:51.246Z,32.05
2022-10-13T05:34:21.296Z,31.99
2022-10-13T05:34:51.339Z,31.96
2022-10-13T05:35:21.373Z,32.02
2022-10-13T05:35:51.405Z,31.99
2022-10-13T05:36:21.489Z,32.01
2022-10-13T05:36:51.555Z,31.95
2022-10-13T05:37:21.589Z,31.94
2022-10-13T05:37:51.623Z,31.96
2022-10-13T05:38:25.928Z,31.90
2022-10-13T05:38:51.771Z,31.90
2022-10-13T05:39:21.771Z,31.96
2022-10-13T05:39:51.763Z,32.27
2022-10-13T05:40:21.903Z,32.14
2022-10-13T05:40:51.896Z,32.02
2022-10-13T05:41:21.893Z,32.03
2022-10-13T05:41:52.010Z,32.02
2022-10-13T05:42:22.588Z,31.94
2022-10-13T05:42:52.129Z,31.94
2022-10-13T05:43:22.124Z,31.94
2022-10-13T05:43:52.241Z,31.99
2022-10-13T05:44:22.236Z,31.94
2022-10-13T05:44:52.231Z,32.02
2022-10-13T05:45:22.357Z,31.96
2022-10-13T05:45:52.355Z,31.96
2022-10-13T05:46:22.350Z,31.84
2022-10-13T05:46:52.467Z,31.90
2022-10-13T05:47:22.590Z,31.90
2022-10-13T05:47:52.594Z,31.93
2022-10-13T05:48:22.712Z,32.09
2022-10-13T05:48:52.825Z,31.93
2022-10-13T05:49:22.848Z,31.92
2022-10-13T05:49:52.902Z,31.86
2022-10-13T05:50:22.941Z,31.90
2022-10-13T05:50:52.964Z,31.89
2022-10-13T05:51:23.003Z,31.89
2022-10-13T05:51:53.032Z,31.95
2022-10-13T05:52:23.088Z,32.22
2022-10-13T05:52:53.088Z,31.93
2022-10-13T05:53:23.140Z,32.01
2022-10-13T05:53:57.643Z,31.99
2022-10-13T05:54:23.250Z,31.90
2022-10-13T05:54:53.297Z,31.98
2022-10-13T05:55:23.333Z,31.93
2022-10-13T05:55:53.379Z,31.93
2022-10-13T05:56:23.421Z,31.93
2022-10-13T05:56:53.446Z,31.93
2022-10-13T05:57:23.472Z,31.91
2022-10-13T05:57:53.513Z,31.95
2022-10-13T05:58:23.540Z,31.93
2022-10-13T05:58:53.570Z,31.96
2022-10-13T05:59:27.105Z,31.96
2022-10-13T05:59:53.652Z,31.99
2022-10-13T06:00:23.686Z,31.96
2022-10-13T06:00:53.735Z,31.91
2022-10-13T06:01:23.858Z,31.91
2022-10-13T06:01:53.940Z,31.96
2022-10-13T06:02:23.955Z,31.93
2022-10-13T06:02:53.990Z,31.89
2022-10-13T06:03:24.021Z,31.94
2022-10-13T06:03:54.065Z,31.96
2022-10-13T06:04:24.123Z,31.93
2022-10-13T06:04:54.171Z,31.96
2022-10-13T06:05:24.218Z,31.93
2022-10-13T06:05:54.238Z,31.91
2022-10-13T06:06:26.811Z,31.94
2022-10-13T06:06:54.317Z,31.91
2022-10-13T06:07:24.348Z,31.97
2022-10-13T06:07:54.425Z,31.97
2022-10-13T06:08:24.457Z,31.97
2022-10-13T06:08:54.510Z,31.99
2022-10-13T06:09:24.538Z,31.99
2022-10-13T06:09:54.596Z,31.99
2022-10-13T06:10:24.643Z,31.97
2022-10-13T06:10:54.669Z,32.03
2022-10-13T06:11:24.703Z,32.00
2022-10-13T06:11:54.738Z,32.03
2022-10-13T06:12:24.773Z,32.00
2022-10-13T06:12:54.797Z,31.95
2022-10-13T06:13:24.839Z,31.98
2022-10-13T06:13:54.880Z,32.00
2022-10-13T06:14:24.907Z,32.04
2022-10-13T06:14:54.947Z,32.04
2022-10-13T06:15:28.188Z,31.97
2022-10-13T06:15:55.068Z,31.99
2022-10-13T06:16:25.106Z,31.98
2022-10-13T06:16:55.134Z,31.97
2022-10-13T06:17:25.166Z,31.94
2022-10-13T06:17:55.208Z,31.99
2022-10-13T06:18:25.238Z,32.00
2022-10-13T06:18:55.270Z,31.94
2022-10-13T06:19:25.295Z,32.02
2022-10-13T06:19:55.337Z,31.96
2022-10-13T06:20:25.421Z,31.99
2022-10-13T06:20:55.454Z,32.02
2022-10-13T06:21:25.487Z,32.00
2022-10-13T06:21:56.578Z,31.96
2022-10-13T06:22:25.596Z,31.94
2022-10-13T06:22:55.649Z,32.00
2022-10-13T06:23:25.658Z,31.97
2022-10-13T06:23:55.693Z,31.94
2022-10-13T06:24:25.722Z,32.00
2022-10-13T06:24:55.760Z,32.02
2022-10-13T06:25:25.818Z,32.05
2022-10-13T06:25:55.850Z,31.97
2022-10-13T06:26:25.884Z,32.00
2022-10-13T06:26:55.919Z,32.01